sensor_id;sensor_type;location;lat;lon;timestamp;pressure;altitude;pressure_sealevel;temperature;humidity
19208;BME280;9737;59.466;18.036;2023-09-08T00:01:55;98641.59;;;14.49;70.00
19208;BME280;9737;59.466;18.036;2023-09-08T00:04:23;98584.53;;;14.34;70.08
19208;BME280;9737;59.466;18.036;2023-09-08T00:06:51;98542.19;;;14.22;70.03
19208;BME280;9737;59.466;18.036;2023-09-08T00:09:21;98513.50;;;14.16;70.41
19208;BME280;9737;59.466;18.036;2023-09-08T00:11:48;98492.03;;;14.10;70.37
19208;BME280;9737;59.466;18.036;2023-09-08T00:14:17;98491.66;;;14.13;70.23
19208;BME280;9737;59.466;18.036;2023-09-08T00:16:44;98546.53;;;14.23;70.38
19208;BME280;9737;59.466;18.036;2023-09-08T00:19:15;98568.03;;;14.30;70.39
19208;BME280;9737;59.466;18.036;2023-09-08T00:21:43;98557.06;;;14.25;70.28
19208;BME280;9737;59.466;18.036;2023-09-08T00:24:10;98560.56;;;14.25;70.35
19208;BME280;9737;59.466;18.036;2023-09-08T00:26:40;98540.72;;;14.20;70.77
19208;BME280;9737;59.466;18.036;2023-09-08T00:29:08;98491.00;;;14.11;70.56
19208;BME280;9737;59.466;18.036;2023-09-08T00:31:36;98517.38;;;14.14;70.57
19208;BME280;9737;59.466;18.036;2023-09-08T00:34:03;98533.72;;;14.19;70.72
19208;BME280;9737;59.466;18.036;2023-09-08T00:36:32;98565.06;;;14.25;70.96
19208;BME280;9737;59.466;18.036;2023-09-08T00:39:00;98589.41;;;14.30;70.81
19208;BME280;9737;59.466;18.036;2023-09-08T00:41:28;98598.09;;;14.32;70.92
19208;BME280;9737;59.466;18.036;2023-09-08T00:43:57;98622.44;;;14.37;71.18
19208;BME280;9737;59.466;18.036;2023-09-08T00:46:26;98631.09;;;14.39;71.07
19208;BME280;9737;59.466;18.036;2023-09-08T00:48:54;98659.81;;;14.45;71.43
19208;BME280;9737;59.466;18.036;2023-09-08T00:51:22;98708.03;;;14.60;71.41
19208;BME280;9737;59.466;18.036;2023-09-08T00:53:50;98717.91;;;14.60;71.64
19208;BME280;9737;59.466;18.036;2023-09-08T00:56:19;98705.91;;;14.55;71.63
19208;BME280;9737;59.466;18.036;2023-09-08T00:58:48;98719.56;;;14.61;71.49
19208;BME280;9737;59.466;18.036;2023-09-08T01:01:17;98693.53;;;14.54;72.03
19208;BME280;9737;59.466;18.036;2023-09-08T01:03:47;98731.94;;;14.62;71.77
19208;BME280;9737;59.466;18.036;2023-09-08T01:06:15;98759.63;;;14.69;71.93
19208;BME280;9737;59.466;18.036;2023-09-08T01:08:44;98761.66;;;14.67;72.21
19208;BME280;9737;59.466;18.036;2023-09-08T01:11:12;98820.75;;;14.80;72.36
19208;BME280;9737;59.466;18.036;2023-09-08T01:13:40;98837.13;;;14.85;72.43
19208;BME280;9737;59.466;18.036;2023-09-08T01:16:08;98819.75;;;14.81;72.45
19208;BME280;9737;59.466;18.036;2023-09-08T01:18:37;98832.94;;;14.82;72.61
19208;BME280;9737;59.466;18.036;2023-09-08T01:24:20;98833.97;;;14.81;72.56
19208;BME280;9737;59.466;18.036;2023-09-08T01:26:56;98809.78;;;14.75;73.09
19208;BME280;9737;59.466;18.036;2023-09-08T01:29:25;98796.72;;;14.72;73.03
19208;BME280;9737;59.466;18.036;2023-09-08T01:31:53;98791.53;;;14.70;72.83
19208;BME280;9737;59.466;18.036;2023-09-08T01:34:22;98827.13;;;14.79;72.81
19208;BME280;9737;59.466;18.036;2023-09-08T01:36:50;98807.41;;;14.72;73.04
19208;BME280;9737;59.466;18.036;2023-09-08T01:39:18;98809.91;;;14.73;73.07
19208;BME280;9737;59.466;18.036;2023-09-08T01:41:46;98834.31;;;14.78;73.35
19208;BME280;9737;59.466;18.036;2023-09-08T01:44:16;98838.84;;;14.78;73.42
19208;BME280;9737;59.466;18.036;2023-09-08T01:46:45;98824.13;;;14.74;73.34
19208;BME280;9737;59.466;18.036;2023-09-08T01:49:13;98811.09;;;14.71;73.56
19208;BME280;9737;59.466;18.036;2023-09-08T01:51:41;98830.16;;;14.76;73.63
19208;BME280;9737;59.466;18.036;2023-09-08T01:54:09;98826.81;;;14.74;73.80
19208;BME280;9737;59.466;18.036;2023-09-08T01:56:37;98849.19;;;14.81;74.15
19208;BME280;9737;59.466;18.036;2023-09-08T01:59:05;98823.47;;;14.72;73.98
19208;BME280;9737;59.466;18.036;2023-09-08T02:01:34;98811.09;;;14.71;74.29
19208;BME280;9737;59.466;18.036;2023-09-08T02:04:03;98813.13;;;14.69;74.46
19208;BME280;9737;59.466;18.036;2023-09-08T02:06:31;98821.81;;;14.71;74.25
19208;BME280;9737;59.466;18.036;2023-09-08T02:09:00;98815.16;;;14.67;74.22
19208;BME280;9737;59.466;18.036;2023-09-08T02:11:27;98858.59;;;14.77;74.38
19208;BME280;9737;59.466;18.036;2023-09-08T02:13:55;98820.50;;;14.67;74.84
19208;BME280;9737;59.466;18.036;2023-09-08T02:16:24;98811.81;;;14.65;74.51
19208;BME280;9737;59.466;18.036;2023-09-08T02:18:54;98785.78;;;14.59;75.05
19208;BME280;9737;59.466;18.036;2023-09-08T02:21:22;98779.78;;;14.56;74.77
19208;BME280;9737;59.466;18.036;2023-09-08T02:23:50;98802.50;;;14.61;75.23
19208;BME280;9737;59.466;18.036;2023-09-08T02:26:18;98831.22;;;14.67;74.81
19208;BME280;9737;59.466;18.036;2023-09-08T02:28:46;98824.19;;;14.66;74.97
19208;BME280;9737;59.466;18.036;2023-09-08T02:31:14;98841.56;;;14.70;75.17
19208;BME280;9737;59.466;18.036;2023-09-08T02:33:42;98870.31;;;14.76;75.40
19208;BME280;9737;59.466;18.036;2023-09-08T02:36:12;98863.44;;;14.73;75.21
19208;BME280;9737;59.466;18.036;2023-09-08T02:38:39;98859.28;;;14.71;75.59
19208;BME280;9737;59.466;18.036;2023-09-08T02:41:07;98827.88;;;14.65;75.50
19208;BME280;9737;59.466;18.036;2023-09-08T02:43:35;98804.34;;;14.60;75.52
19208;BME280;9737;59.466;18.036;2023-09-08T02:46:03;98833.22;;;14.65;75.63
19208;BME280;9737;59.466;18.036;2023-09-08T02:48:31;98829.72;;;14.64;75.73
19208;BME280;9737;59.466;18.036;2023-09-08T02:50:59;98838.59;;;14.65;75.75
19208;BME280;9737;59.466;18.036;2023-09-08T02:53:29;98809.88;;;14.59;75.88
19208;BME280;9737;59.466;18.036;2023-09-08T02:55:57;98774.50;;;14.48;75.78
19208;BME280;9737;59.466;18.036;2023-09-08T02:58:26;98763.16;;;14.46;76.09
19208;BME280;9737;59.466;18.036;2023-09-08T03:00:54;98745.75;;;14.42;76.41
19208;BME280;9737;59.466;18.036;2023-09-08T03:03:22;98751.09;;;14.42;76.27
19208;BME280;9737;59.466;18.036;2023-09-08T03:05:53;98777.34;;;14.47;76.47
19208;BME280;9737;59.466;18.036;2023-09-08T03:08:23;98771.19;;;14.46;76.45
19208;BME280;9737;59.466;18.036;2023-09-08T03:10:57;98772.34;;;14.44;76.39
19208;BME280;9737;59.466;18.036;2023-09-08T03:13:25;98765.16;;;14.44;76.45
19208;BME280;9737;59.466;18.036;2023-09-08T03:15:53;98783.53;;;14.47;76.54
19208;BME280;9737;59.466;18.036;2023-09-08T03:18:21;98757.63;;;14.40;76.97
19208;BME280;9737;59.466;18.036;2023-09-08T03:20:49;98742.13;;;14.35;77.09
19208;BME280;9737;59.466;18.036;2023-09-08T03:23:18;98723.94;;;14.31;76.77
19208;BME280;9737;59.466;18.036;2023-09-08T03:25:48;98694.41;;;14.24;77.18
19208;BME280;9737;59.466;18.036;2023-09-08T03:28:18;98660.69;;;14.15;77.13
19208;BME280;9737;59.466;18.036;2023-09-08T03:30:45;98640.03;;;14.09;77.19
19208;BME280;9737;59.466;18.036;2023-09-08T03:33:13;98667.72;;;14.16;77.31
19208;BME280;9737;59.466;18.036;2023-09-08T03:35:41;98667.56;;;14.17;77.32
19208;BME280;9737;59.466;18.036;2023-09-08T03:38:09;98650.38;;;14.12;77.32
19208;BME280;9737;59.466;18.036;2023-09-08T03:40:37;98667.06;;;14.14;77.24
19208;BME280;9737;59.466;18.036;2023-09-08T03:43:05;98666.06;;;14.15;77.73
19208;BME280;9737;59.466;18.036;2023-09-08T03:45:35;98698.28;;;14.21;77.74
19208;BME280;9737;59.466;18.036;2023-09-08T03:48:03;98712.28;;;14.23;77.50
19208;BME280;9737;59.466;18.036;2023-09-08T03:50:31;98699.09;;;14.22;77.66
19208;BME280;9737;59.466;18.036;2023-09-08T03:52:59;98709.81;;;14.22;78.09
19208;BME280;9737;59.466;18.036;2023-09-08T03:55:27;98688.78;;;14.19;77.99
19208;BME280;9737;59.466;18.036;2023-09-08T03:57:55;98679.41;;;14.15;78.06
19208;BME280;9737;59.466;18.036;2023-09-08T04:00:23;98672.59;;;14.12;78.12
19208;BME280;9737;59.466;18.036;2023-09-08T04:02:53;98689.94;;;14.16;78.22
19208;BME280;9737;59.466;18.036;2023-09-08T04:05:21;98698.63;;;14.18;78.39
19208;BME280;9737;59.466;18.036;2023-09-08T04:07:49;98680.44;;;14.14;78.46
19208;BME280;9737;59.466;18.036;2023-09-08T04:10:17;98656.44;;;14.06;78.33
19208;BME280;9737;59.466;18.036;2023-09-08T04:12:44;98633.75;;;14.02;78.52
19208;BME280;9737;59.466;18.036;2023-09-08T04:15:12;98616.59;;;13.96;78.44
19208;BME280;9737;59.466;18.036;2023-09-08T04:17:40;98647.75;;;14.04;78.67
19208;BME280;9737;59.466;18.036;2023-09-08T04:20:10;98705.00;;;14.17;78.82
19208;BME280;9737;59.466;18.036;2023-09-08T04:22:41;98684.94;;;14.13;78.51
19208;BME280;9737;59.466;18.036;2023-09-08T04:25:09;98656.78;;;14.03;78.77
19208;BME280;9737;59.466;18.036;2023-09-08T04:27:37;98679.13;;;14.10;78.83
19208;BME280;9737;59.466;18.036;2023-09-08T04:30:07;98721.88;;;14.18;78.66
19208;BME280;9737;59.466;18.036;2023-09-08T04:32:35;98706.84;;;14.17;78.92
19208;BME280;9737;59.466;18.036;2023-09-08T04:35:05;98755.56;;;14.27;79.01
19208;BME280;9737;59.466;18.036;2023-09-08T04:37:35;98789.25;;;14.36;79.23
19208;BME280;9737;59.466;18.036;2023-09-08T04:40:06;98851.91;;;14.50;79.30
19208;BME280;9737;59.466;18.036;2023-09-08T04:42:34;98890.47;;;14.55;79.27
19208;BME280;9737;59.466;18.036;2023-09-08T04:45:03;98942.22;;;14.71;79.31
19208;BME280;9737;59.466;18.036;2023-09-08T04:47:31;98983.34;;;14.78;79.24
19208;BME280;9737;59.466;18.036;2023-09-08T04:49:59;99001.56;;;14.82;79.36
19208;BME280;9737;59.466;18.036;2023-09-08T04:52:27;99010.25;;;14.84;79.40
19208;BME280;9737;59.466;18.036;2023-09-08T04:54:56;99027.78;;;14.87;79.79
19208;BME280;9737;59.466;18.036;2023-09-08T04:57:24;99110.38;;;15.06;79.70
19208;BME280;9737;59.466;18.036;2023-09-08T04:59:52;99143.47;;;15.13;79.73
19208;BME280;9737;59.466;18.036;2023-09-08T05:02:20;99193.13;;;15.24;79.95
19208;BME280;9737;59.466;18.036;2023-09-08T05:04:48;99218.38;;;15.30;79.91
19208;BME280;9737;59.466;18.036;2023-09-08T05:07:16;99239.16;;;15.36;79.81
19208;BME280;9737;59.466;18.036;2023-09-08T05:09:45;99316.78;;;15.52;79.99
19208;BME280;9737;59.466;18.036;2023-09-08T05:12:14;99325.31;;;15.56;80.25
19208;BME280;9737;59.466;18.036;2023-09-08T05:14:42;99362.22;;;15.62;79.97
19208;BME280;9737;59.466;18.036;2023-09-08T05:17:10;99371.75;;;15.64;80.28
19208;BME280;9737;59.466;18.036;2023-09-08T05:19:38;99411.94;;;15.72;80.45
19208;BME280;9737;59.466;18.036;2023-09-08T05:22:06;99431.00;;;15.77;80.36
19208;BME280;9737;59.466;18.036;2023-09-08T05:24:34;99452.94;;;15.81;80.27
19208;BME280;9737;59.466;18.036;2023-09-08T05:27:02;99479.25;;;15.86;80.28
19208;BME280;9737;59.466;18.036;2023-09-08T05:29:31;99510.44;;;15.95;80.56
19208;BME280;9737;59.466;18.036;2023-09-08T05:31:59;99573.41;;;16.07;80.63
19208;BME280;9737;59.466;18.036;2023-09-08T05:34:26;99657.09;;;16.27;80.77
19208;BME280;9737;59.466;18.036;2023-09-08T05:36:54;99685.75;;;16.34;80.61
19208;BME280;9737;59.466;18.036;2023-09-08T05:39:22;99708.56;;;16.38;80.77
19208;BME280;9737;59.466;18.036;2023-09-08T05:41:50;99767.97;;;16.52;80.90
19208;BME280;9737;59.466;18.036;2023-09-08T05:44:18;99804.03;;;16.57;80.77
19208;BME280;9737;59.466;18.036;2023-09-08T05:46:47;99856.25;;;16.71;80.90
19208;BME280;9737;59.466;18.036;2023-09-08T05:49:15;99886.94;;;16.77;80.90
19208;BME280;9737;59.466;18.036;2023-09-08T05:51:44;99949.94;;;16.90;81.10
19208;BME280;9737;59.466;18.036;2023-09-08T05:54:12;100002.31;;;17.02;81.02
19208;BME280;9737;59.466;18.036;2023-09-08T05:56:40;100033.94;;;17.09;81.13
19208;BME280;9737;59.466;18.036;2023-09-08T05:59:08;100042.66;;;17.11;81.00
19208;BME280;9737;59.466;18.036;2023-09-08T06:01:36;100077.59;;;17.19;81.14
19208;BME280;9737;59.466;18.036;2023-09-08T06:04:06;100085.66;;;17.19;81.18
19208;BME280;9737;59.466;18.036;2023-09-08T06:06:34;100098.94;;;17.20;81.16
19208;BME280;9737;59.466;18.036;2023-09-08T06:09:02;100098.78;;;17.22;81.13
19208;BME280;9737;59.466;18.036;2023-09-08T06:11:32;100210.06;;;17.45;81.32
19208;BME280;9737;59.466;18.036;2023-09-08T06:14:01;100268.59;;;17.59;81.24
19208;BME280;9737;59.466;18.036;2023-09-08T06:16:28;100229.25;;;17.50;81.36
19208;BME280;9737;59.466;18.036;2023-09-08T06:18:56;100231.09;;;17.50;81.31
19208;BME280;9737;59.466;18.036;2023-09-08T06:21:25;100229.41;;;17.49;81.33
19208;BME280;9737;59.466;18.036;2023-09-08T06:23:53;100261.84;;;17.55;81.28
19208;BME280;9737;59.466;18.036;2023-09-08T06:26:21;100280.03;;;17.61;81.41
19208;BME280;9737;59.466;18.036;2023-09-08T06:28:49;100289.78;;;17.62;81.42
19208;BME280;9737;59.466;18.036;2023-09-08T06:31:17;100303.94;;;17.64;81.40
19208;BME280;9737;59.466;18.036;2023-09-08T06:33:44;100354.44;;;17.79;81.25
19208;BME280;9737;59.466;18.036;2023-09-08T06:36:13;100393.13;;;17.86;81.23
19208;BME280;9737;59.466;18.036;2023-09-08T06:38:42;100431.88;;;17.93;81.28
19208;BME280;9737;59.466;18.036;2023-09-08T06:41:10;100414.16;;;17.90;81.23
19208;BME280;9737;59.466;18.036;2023-09-08T06:43:38;100453.59;;;18.00;81.33
19208;BME280;9737;59.466;18.036;2023-09-08T06:46:06;100517.72;;;18.12;81.27
19208;BME280;9737;59.466;18.036;2023-09-08T06:48:34;100574.84;;;18.24;81.23
19208;BME280;9737;59.466;18.036;2023-09-08T06:51:03;100584.47;;;18.26;81.51
19208;BME280;9737;59.466;18.036;2023-09-08T06:53:31;100627.94;;;18.40;81.09
19208;BME280;9737;59.466;18.036;2023-09-08T06:56:00;100641.41;;;18.40;81.22
19208;BME280;9737;59.466;18.036;2023-09-08T06:58:28;100724.69;;;18.59;81.17
19208;BME280;9737;59.466;18.036;2023-09-08T07:00:56;100805.34;;;18.78;81.07
19208;BME280;9737;59.466;18.036;2023-09-08T07:03:24;100886.31;;;18.95;81.17
19208;BME280;9737;59.466;18.036;2023-09-08T07:05:53;100990.97;;;19.17;81.16
19208;BME280;9737;59.466;18.036;2023-09-08T07:08:21;101019.16;;;19.23;81.13
19208;BME280;9737;59.466;18.036;2023-09-08T07:10:52;101014.63;;;19.23;81.10
19208;BME280;9737;59.466;18.036;2023-09-08T07:13:21;101072.69;;;19.35;81.06
19208;BME280;9737;59.466;18.036;2023-09-08T07:15:49;101134.53;;;19.46;81.04
19208;BME280;9737;59.466;18.036;2023-09-08T07:18:17;101179.03;;;19.60;80.93
19208;BME280;9737;59.466;18.036;2023-09-08T07:20:46;101193.38;;;19.61;81.11
19208;BME280;9737;59.466;18.036;2023-09-08T07:23:16;101172.25;;;19.56;81.09
19208;BME280;9737;59.466;18.036;2023-09-08T07:25:47;101161.78;;;19.53;80.95
19208;BME280;9737;59.466;18.036;2023-09-08T07:28:16;101198.78;;;19.61;80.91
19208;BME280;9737;59.466;18.036;2023-09-08T07:30:47;101246.13;;;19.73;80.96
19208;BME280;9737;59.466;18.036;2023-09-08T07:33:15;101345.59;;;19.95;80.72
19208;BME280;9737;59.466;18.036;2023-09-08T07:35:43;101371.97;;;20.01;80.68
19208;BME280;9737;59.466;18.036;2023-09-08T07:38:10;101372.97;;;20.00;80.74
19208;BME280;9737;59.466;18.036;2023-09-08T07:40:38;101307.69;;;19.87;80.78
19208;BME280;9737;59.466;18.036;2023-09-08T07:43:06;101342.91;;;19.95;80.55
19208;BME280;9737;59.466;18.036;2023-09-08T07:45:34;101377.06;;;20.04;80.60
19208;BME280;9737;59.466;18.036;2023-09-08T07:48:03;101401.06;;;20.07;80.54
19208;BME280;9737;59.466;18.036;2023-09-08T07:50:32;101381.78;;;20.02;80.43
19208;BME280;9737;59.466;18.036;2023-09-08T07:52:59;101438.13;;;20.15;80.46
19208;BME280;9737;59.466;18.036;2023-09-08T07:55:27;101454.56;;;20.22;80.45
19208;BME280;9737;59.466;18.036;2023-09-08T07:57:57;101518.22;;;20.34;80.25
19208;BME280;9737;59.466;18.036;2023-09-08T08:00:25;101475.91;;;20.25;80.31
19208;BME280;9737;59.466;18.036;2023-09-08T08:02:55;101500.59;;;20.30;80.09
19208;BME280;9737;59.466;18.036;2023-09-08T08:05:25;101575.63;;;20.46;80.06
19208;BME280;9737;59.466;18.036;2023-09-08T08:07:53;101647.81;;;20.63;80.11
19208;BME280;9737;59.466;18.036;2023-09-08T08:10:21;101647.66;;;20.64;79.99
19208;BME280;9737;59.466;18.036;2023-09-08T08:12:49;101631.75;;;20.61;79.98
19208;BME280;9737;59.466;18.036;2023-09-08T08:15:19;101683.91;;;20.71;79.88
19208;BME280;9737;59.466;18.036;2023-09-08T08:17:47;101714.75;;;20.79;79.75
19208;BME280;9737;59.466;18.036;2023-09-08T08:20:15;101759.00;;;20.87;79.77
19208;BME280;9737;59.466;18.036;2023-09-08T08:22:46;101760.69;;;20.88;79.73
19208;BME280;9737;59.466;18.036;2023-09-08T08:25:14;101798.50;;;20.98;79.55
19208;BME280;9737;59.466;18.036;2023-09-08T08:27:42;101835.47;;;21.07;79.49
19208;BME280;9737;59.466;18.036;2023-09-08T08:30:11;101800.22;;;20.99;79.49
19208;BME280;9737;59.466;18.036;2023-09-08T08:32:40;101852.16;;;21.12;79.42
19208;BME280;9737;59.466;18.036;2023-09-08T08:35:07;101979.41;;;21.40;79.43
19208;BME280;9737;59.466;18.036;2023-09-08T08:37:36;102058.16;;;21.56;79.19
19208;BME280;9737;59.466;18.036;2023-09-08T08:40:07;102218.31;;;21.90;79.27
19208;BME280;9737;59.466;18.036;2023-09-08T08:42:37;102244.97;;;21.94;79.32
19208;BME280;9737;59.466;18.036;2023-09-08T08:45:06;102167.84;;;21.79;79.08
19208;BME280;9737;59.466;18.036;2023-09-08T08:47:35;102203.19;;;21.87;78.87
19208;BME280;9737;59.466;18.036;2023-09-08T08:50:03;102215.59;;;21.90;79.04
19208;BME280;9737;59.466;18.036;2023-09-08T08:52:31;102326.28;;;22.14;78.71
19208;BME280;9737;59.466;18.036;2023-09-08T08:55:00;102332.41;;;22.16;78.88
19208;BME280;9737;59.466;18.036;2023-09-08T08:57:29;102332.41;;;22.16;78.50
19208;BME280;9737;59.466;18.036;2023-09-08T08:59:58;102451.13;;;22.41;78.39
19208;BME280;9737;59.466;18.036;2023-09-08T09:02:28;102523.63;;;22.59;78.51
19208;BME280;9737;59.466;18.036;2023-09-08T09:04:56;102610.44;;;22.78;78.33
19208;BME280;9737;59.466;18.036;2023-09-08T09:07:25;102688.50;;;22.95;78.23
19208;BME280;9737;59.466;18.036;2023-09-08T09:09:54;102841.16;;;23.28;78.04
19208;BME280;9737;59.466;18.036;2023-09-08T09:12:22;102846.56;;;23.28;77.99
19208;BME280;9737;59.466;18.036;2023-09-08T09:14:54;102909.53;;;23.42;78.20
19208;BME280;9737;59.466;18.036;2023-09-08T09:17:22;102842.00;;;23.28;77.87
19208;BME280;9737;59.466;18.036;2023-09-08T09:19:50;102853.59;;;23.30;77.73
19208;BME280;9737;59.466;18.036;2023-09-08T09:22:20;102801.25;;;23.18;77.73
19208;BME280;9737;59.466;18.036;2023-09-08T09:24:48;102764.66;;;23.13;77.55
19208;BME280;9737;59.466;18.036;2023-09-08T09:27:16;102912.09;;;23.44;77.83
19208;BME280;9737;59.466;18.036;2023-09-08T09:29:45;102935.00;;;23.51;77.45
19208;BME280;9737;59.466;18.036;2023-09-08T09:32:16;102942.13;;;23.52;77.65
19208;BME280;9737;59.466;18.036;2023-09-08T09:34:48;102909.09;;;23.47;77.19
19208;BME280;9737;59.466;18.036;2023-09-08T09:37:17;102926.13;;;23.49;77.29
19208;BME280;9737;59.466;18.036;2023-09-08T09:39:48;102984.53;;;23.64;77.16
19208;BME280;9737;59.466;18.036;2023-09-08T09:42:17;103045.94;;;23.76;76.90
19208;BME280;9737;59.466;18.036;2023-09-08T09:44:46;103093.75;;;23.89;76.83
19208;BME280;9737;59.466;18.036;2023-09-08T09:47:16;103189.00;;;24.08;76.66
19208;BME280;9737;59.466;18.036;2023-09-08T09:49:45;103413.47;;;24.54;76.56
19208;BME280;9737;59.466;18.036;2023-09-08T09:52:14;103516.75;;;24.76;76.58
19208;BME280;9737;59.466;18.036;2023-09-08T09:54:42;103697.66;;;25.15;76.38
19208;BME280;9737;59.466;18.036;2023-09-08T09:57:13;103887.75;;;25.55;76.21
19208;BME280;9737;59.466;18.036;2023-09-08T09:59:41;104084.34;;;25.95;76.16
19208;BME280;9737;59.466;18.036;2023-09-08T10:02:12;104204.84;;;26.22;76.10
19208;BME280;9737;59.466;18.036;2023-09-08T10:04:42;104371.34;;;26.56;75.86
19208;BME280;9737;59.466;18.036;2023-09-08T10:07:10;104631.28;;;27.07;75.88
19208;BME280;9737;59.466;18.036;2023-09-08T10:09:38;104885.06;;;27.60;75.69
19208;BME280;9737;59.466;18.036;2023-09-08T10:12:08;105276.88;;;28.38;75.43
19208;BME280;9737;59.466;18.036;2023-09-08T10:14:40;105604.47;;;29.04;75.33
19208;BME280;9737;59.466;18.036;2023-09-08T10:17:11;105846.97;;;29.52;75.39
19208;BME280;9737;59.466;18.036;2023-09-08T10:19:41;105770.31;;;29.37;75.20
19208;BME280;9737;59.466;18.036;2023-09-08T10:22:15;105765.69;;;29.37;74.96
19208;BME280;9737;59.466;18.036;2023-09-08T10:24:49;105880.09;;;29.62;74.82
19208;BME280;9737;59.466;18.036;2023-09-08T10:27:18;106313.53;;;30.47;74.82
19208;BME280;9737;59.466;18.036;2023-09-08T10:29:48;106272.75;;;30.41;74.43
19208;BME280;9737;59.466;18.036;2023-09-08T10:35:42;106667.22;;;31.18;74.09
19208;BME280;9737;59.466;18.036;2023-09-08T10:38:24;106827.50;;;31.50;73.50
19208;BME280;9737;59.466;18.036;2023-09-08T10:40:53;106886.22;;;31.65;73.61
19208;BME280;9737;59.466;18.036;2023-09-08T10:43:21;106829.19;;;31.53;73.57
19208;BME280;9737;59.466;18.036;2023-09-08T10:45:51;106633.22;;;31.19;73.22
19208;BME280;9737;59.466;18.036;2023-09-08T10:48:19;106388.66;;;30.75;72.96
19208;BME280;9737;59.466;18.036;2023-09-08T10:50:48;106739.72;;;31.46;72.83
19208;BME280;9737;59.466;18.036;2023-09-08T10:53:17;106974.47;;;31.92;72.20
19208;BME280;9737;59.466;18.036;2023-09-08T10:55:46;107001.59;;;31.98;72.00
19208;BME280;9737;59.466;18.036;2023-09-08T10:58:36;107053.19;;;32.10;71.70
19208;BME280;9737;59.466;18.036;2023-09-08T11:01:05;106892.44;;;31.83;71.43
19208;BME280;9737;59.466;18.036;2023-09-08T11:03:45;106592.22;;;31.29;71.60
19208;BME280;9737;59.466;18.036;2023-09-08T11:06:17;106225.53;;;30.62;70.97
19208;BME280;9737;59.466;18.036;2023-09-08T11:08:46;106000.28;;;30.22;70.96
19208;BME280;9737;59.466;18.036;2023-09-08T11:11:15;105710.59;;;29.66;70.83
19208;BME280;9737;59.466;18.036;2023-09-08T11:13:44;105573.31;;;29.42;70.43
19208;BME280;9737;59.466;18.036;2023-09-08T11:16:14;105441.66;;;29.18;70.19
19208;BME280;9737;59.466;18.036;2023-09-08T11:18:42;105075.25;;;28.48;70.05
19208;BME280;9737;59.466;18.036;2023-09-08T11:21:10;105082.22;;;28.52;69.66
19208;BME280;9737;59.466;18.036;2023-09-08T11:23:40;104865.44;;;28.12;69.59
19208;BME280;9737;59.466;18.036;2023-09-08T11:26:08;104983.13;;;28.36;69.68
19208;BME280;9737;59.466;18.036;2023-09-08T11:28:36;104923.59;;;28.27;69.05
19208;BME280;9737;59.466;18.036;2023-09-08T11:31:05;104834.72;;;28.08;69.29
19208;BME280;9737;59.466;18.036;2023-09-08T11:33:34;105015.00;;;28.48;68.59
19208;BME280;9737;59.466;18.036;2023-09-08T11:36:12;105156.03;;;28.78;68.63
19208;BME280;9737;59.466;18.036;2023-09-08T11:38:44;105020.97;;;28.53;68.67
19208;BME280;9737;59.466;18.036;2023-09-08T11:41:13;105290.56;;;29.10;68.32
19208;BME280;9737;59.466;18.036;2023-09-08T11:43:41;104947.16;;;28.41;68.46
19208;BME280;9737;59.466;18.036;2023-09-08T11:46:08;104890.38;;;28.31;67.93
19208;BME280;9737;59.466;18.036;2023-09-08T11:48:37;104827.50;;;28.19;68.06
19208;BME280;9737;59.466;18.036;2023-09-08T11:51:06;104817.28;;;28.21;67.42
19208;BME280;9737;59.466;18.036;2023-09-08T11:53:35;104978.78;;;28.56;67.28
19208;BME280;9737;59.466;18.036;2023-09-08T11:56:05;104863.84;;;28.32;67.28
19208;BME280;9737;59.466;18.036;2023-09-08T11:58:33;104950.75;;;28.52;67.41
19208;BME280;9737;59.466;18.036;2023-09-08T12:01:03;104771.13;;;28.16;67.23
19208;BME280;9737;59.466;18.036;2023-09-08T12:03:31;105085.28;;;28.83;66.75
19208;BME280;9737;59.466;18.036;2023-09-08T12:05:59;105081.53;;;28.84;66.85
19208;BME280;9737;59.466;18.036;2023-09-08T12:08:29;105010.56;;;28.69;66.53
19208;BME280;9737;59.466;18.036;2023-09-08T12:10:57;104865.88;;;28.41;66.44
19208;BME280;9737;59.466;18.036;2023-09-08T12:13:26;104736.41;;;28.17;66.26
19208;BME280;9737;59.466;18.036;2023-09-08T12:15:54;104692.41;;;28.08;66.30
19208;BME280;9737;59.466;18.036;2023-09-08T12:18:37;104581.97;;;27.87;66.23
19208;BME280;9737;59.466;18.036;2023-09-08T12:21:06;104509.25;;;27.73;65.91
19208;BME280;9737;59.466;18.036;2023-09-08T12:23:46;104677.72;;;28.10;65.76
19208;BME280;9737;59.466;18.036;2023-09-08T12:26:15;104636.28;;;28.03;65.35
19208;BME280;9737;59.466;18.036;2023-09-08T12:28:45;104381.66;;;27.52;65.45
19208;BME280;9737;59.466;18.036;2023-09-08T12:31:13;104212.34;;;27.18;65.21
19208;BME280;9737;59.466;18.036;2023-09-08T12:33:42;104112.94;;;26.98;65.42
19208;BME280;9737;59.466;18.036;2023-09-08T12:36:10;104087.88;;;26.93;65.12
19208;BME280;9737;59.466;18.036;2023-09-08T12:38:38;103993.75;;;26.76;65.06
19208;BME280;9737;59.466;18.036;2023-09-08T12:41:06;103832.91;;;26.43;64.97
19208;BME280;9737;59.466;18.036;2023-09-08T12:43:34;103845.28;;;26.47;64.47
19208;BME280;9737;59.466;18.036;2023-09-08T12:46:03;103906.72;;;26.62;64.72
19208;BME280;9737;59.466;18.036;2023-09-08T12:48:31;103939.69;;;26.70;64.48
19208;BME280;9737;59.466;18.036;2023-09-08T12:50:59;103898.53;;;26.62;64.09
19208;BME280;9737;59.466;18.036;2023-09-08T12:53:27;103969.91;;;26.78;64.30
19208;BME280;9737;59.466;18.036;2023-09-08T12:55:55;103910.91;;;26.66;64.33
19208;BME280;9737;59.466;18.036;2023-09-08T12:58:22;103852.94;;;26.53;63.66
19208;BME280;9737;59.466;18.036;2023-09-08T13:00:50;103882.16;;;26.62;63.79
19208;BME280;9737;59.466;18.036;2023-09-08T13:03:19;103843.75;;;26.54;63.85
19208;BME280;9737;59.466;18.036;2023-09-08T13:05:47;103896.25;;;26.67;63.45
19208;BME280;9737;59.466;18.036;2023-09-08T13:08:15;103850.66;;;26.58;63.80
19208;BME280;9737;59.466;18.036;2023-09-08T13:10:43;103796.16;;;26.47;63.29